Time;durP1;ratioP1;P1;durP2;ratioP2;P2;SDS_P1;SDS_P2;PMS_P1;PMS_P2;Temp;Humidity;BMP_temperature;BMP_pressure;BME280_temperature;BME280_humidity;BME280_pressure;Samples;Min_cycle;Max_cycle;Signal;HPM_P1;HPM_P2
2022/05/21 00:01:55;;;;;;;9.27;7.25;;;;;;;;;;5030072;28;20037;-63
2022/05/21 00:04:21;;;;;;;7.65;6.63;;;;;;;;;;5029945;28;20178;-62
2022/05/21 00:06:47;;;;;;;7.55;6.88;;;;;;;;;;5034033;28;20623;-62
2022/05/21 00:09:13;;;;;;;7.80;7.00;;;;;;;;;;5031647;28;20509;-63
2022/05/21 00:11:39;;;;;;;7.72;7.03;;;;;;;;;;5023325;28;20136;-62
2022/05/21 00:14:05;;;;;;;7.72;6.90;;;;;;;;;;5028022;28;20127;-62
2022/05/21 00:16:31;;;;;;;8.50;7.28;;;;;;;;;;5043829;28;20048;-63
2022/05/21 00:18:56;;;;;;;6.88;6.28;;;;;;;;;;5027223;28;20038;-63
2022/05/21 00:21:23;;;;;;;7.57;6.80;;;;;;;;;;5028796;28;20519;-62
2022/05/21 00:23:50;;;;;;;7.28;6.63;;;;;;;;;;5034685;28;20025;-62
2022/05/21 00:26:16;;;;;;;6.57;6.07;;;;;;;;;;5037217;28;20045;-63
2022/05/21 00:28:44;;;;;;;7.45;6.03;;;;;;;;;;5029089;28;20033;-62
2022/05/21 00:31:12;;;;;;;7.45;6.03;;;;;;;;;;5028644;28;20437;-62
2022/05/21 00:33:39;;;;;;;6.50;5.90;;;;;;;;;;5039388;28;20235;-63
2022/05/21 00:36:07;;;;;;;6.32;5.82;;;;;;;;;;5019654;28;20160;-63
2022/05/21 00:38:33;;;;;;;6.82;6.22;;;;;;;;;;5027657;28;20034;-62
2022/05/21 00:40:59;;;;;;;6.90;6.30;;;;;;;;;;5035353;28;20040;-62
2022/05/21 00:43:52;;;;;;;6.70;6.03;;;;;;;;;;5026434;28;20063;-63
2022/05/21 00:46:19;;;;;;;6.32;5.82;;;;;;;;;;5030510;28;20029;-62
2022/05/21 00:48:51;;;;;;;6.60;6.00;;;;;;;;;;5028639;28;20030;-63
2022/05/21 00:51:21;;;;;;;6.53;5.90;;;;;;;;;;5028719;28;20643;-62
2022/05/21 00:53:49;;;;;;;6.57;5.97;;;;;;;;;;5018093;28;20029;-63
2022/05/21 00:56:17;;;;;;;6.72;6.15;;;;;;;;;;5029015;28;20128;-62
2022/05/21 01:01:33;;;;;;;6.30;5.80;;;;;;;;;;5028077;28;20021;-63
2022/05/21 01:03:59;;;;;;;6.95;6.35;;;;;;;;;;5035612;28;20045;-62
2022/05/21 01:06:24;;;;;;;6.45;5.90;;;;;;;;;;5049357;28;20051;-62
2022/05/21 01:08:50;;;;;;;7.18;6.38;;;;;;;;;;5035516;28;20025;-62
2022/05/21 01:11:18;;;;;;;6.72;5.95;;;;;;;;;;5031652;28;20030;-62
2022/05/21 01:13:46;;;;;;;6.43;5.83;;;;;;;;;;5039584;28;20059;-62
2022/05/21 01:16:14;;;;;;;6.40;5.80;;;;;;;;;;5042479;28;20589;-64
2022/05/21 01:18:40;;;;;;;7.93;6.30;;;;;;;;;;5030834;28;20039;-62
2022/05/21 01:21:07;;;;;;;6.03;5.63;;;;;;;;;;5034386;28;20116;-62
2022/05/21 01:23:33;;;;;;;6.47;5.88;;;;;;;;;;5032414;28;20078;-63
2022/05/21 01:26:00;;;;;;;6.50;5.90;;;;;;;;;;5031041;28;20033;-62
2022/05/21 01:28:30;;;;;;;7.35;5.80;;;;;;;;;;5031320;28;20069;-62
2022/05/21 01:30:58;;;;;;;6.18;5.68;;;;;;;;;;5047619;28;20041;-63
2022/05/21 01:33:30;;;;;;;6.63;5.93;;;;;;;;;;5031919;28;22069;-62
2022/05/21 01:35:57;;;;;;;6.30;5.70;;;;;;;;;;5042374;28;20159;-62
2022/05/21 01:38:24;;;;;;;7.43;5.90;;;;;;;;;;5031339;28;20029;-63
2022/05/21 01:40:50;;;;;;;6.50;6.00;;;;;;;;;;5032014;28;20041;-62
2022/05/21 01:46:00;;;;;;;6.10;5.60;;;;;;;;;;5025262;28;20060;-62
2022/05/21 01:48:28;;;;;;;6.35;5.85;;;;;;;;;;5030619;28;20025;-62
2022/05/21 01:50:54;;;;;;;6.10;5.60;;;;;;;;;;5037394;28;20112;-62
2022/05/21 01:53:22;;;;;;;6.13;5.57;;;;;;;;;;5031237;28;20061;-63
2022/05/21 01:55:48;;;;;;;5.90;5.50;;;;;;;;;;5027636;28;20073;-62
2022/05/21 01:58:14;;;;;;;6.38;5.90;;;;;;;;;;5030370;28;20045;-62
2022/05/21 02:00:41;;;;;;;6.40;5.80;;;;;;;;;;5029966;28;20489;-62
2022/05/21 02:03:09;;;;;;;6.00;5.60;;;;;;;;;;5027898;28;20064;-63
2022/05/21 02:05:35;;;;;;;6.43;5.80;;;;;;;;;;5031986;28;20041;-63
2022/05/21 02:08:01;;;;;;;6.38;5.97;;;;;;;;;;5030933;28;20021;-63
2022/05/21 02:10:27;;;;;;;6.85;6.20;;;;;;;;;;5038825;28;20045;-62
2022/05/21 02:12:52;;;;;;;6.68;6.10;;;;;;;;;;5039607;28;20090;-63
2022/05/21 02:15:18;;;;;;;6.20;5.60;;;;;;;;;;5029788;28;20477;-62
2022/05/21 02:17:43;;;;;;;5.93;5.30;;;;;;;;;;5023899;28;20055;-62
2022/05/21 02:20:09;;;;;;;6.45;6.00;;;;;;;;;;5027865;28;20679;-62
2022/05/21 02:22:38;;;;;;;6.20;5.80;;;;;;;;;;5037472;28;20033;-62
2022/05/21 02:25:06;;;;;;;6.47;5.93;;;;;;;;;;5030728;28;20033;-63
2022/05/21 02:27:32;;;;;;;6.45;5.93;;;;;;;;;;5027819;28;20025;-63
2022/05/21 02:29:57;;;;;;;6.22;5.72;;;;;;;;;;5023559;28;20048;-62
2022/05/21 02:32:23;;;;;;;6.22;5.72;;;;;;;;;;5027688;28;20408;-63
2022/05/21 02:34:49;;;;;;;6.47;5.78;;;;;;;;;;5036839;28;20051;-62
2022/05/21 02:39:59;;;;;;;6.78;6.03;;;;;;;;;;5021140;28;20040;-61
2022/05/21 02:45:11;;;;;;;6.28;5.70;;;;;;;;;;5025477;28;20104;-63
2022/05/21 02:47:37;;;;;;;6.47;5.90;;;;;;;;;;5025894;28;20033;-63
2022/05/21 02:50:05;;;;;;;6.60;6.10;;;;;;;;;;5031096;28;20099;-62
2022/05/21 02:52:30;;;;;;;6.15;5.65;;;;;;;;;;5031416;28;20704;-62
2022/05/21 02:54:57;;;;;;;6.30;5.80;;;;;;;;;;5031229;28;20091;-63
2022/05/21 02:57:23;;;;;;;6.75;6.25;;;;;;;;;;5029755;28;20037;-62
2022/05/21 02:59:50;;;;;;;6.75;6.05;;;;;;;;;;5037945;28;20041;-62
2022/05/21 03:02:17;;;;;;;7.00;6.45;;;;;;;;;;5040103;28;20037;-62
2022/05/21 03:04:43;;;;;;;7.15;6.07;;;;;;;;;;5027096;28;20399;-62
2022/05/21 03:07:09;;;;;;;6.50;6.05;;;;;;;;;;5031305;28;20021;-62
2022/05/21 03:12:18;;;;;;;9.30;6.57;;;;;;;;;;5045602;28;20029;-62
2022/05/21 03:14:44;;;;;;;8.45;6.40;;;;;;;;;;5031312;28;20093;-62
2022/05/21 03:17:11;;;;;;;7.78;7.07;;;;;;;;;;5026910;28;20032;-63
2022/05/21 03:19:38;;;;;;;7.78;6.95;;;;;;;;;;5026760;28;20853;-54
2022/05/21 03:22:04;;;;;;;7.03;6.53;;;;;;;;;;5031879;28;20040;-57
2022/05/21 03:24:30;;;;;;;6.95;6.25;;;;;;;;;;5035397;28;20063;-58
2022/05/21 03:26:57;;;;;;;7.15;6.40;;;;;;;;;;5034492;28;20040;-58
2022/05/21 03:29:23;;;;;;;6.78;6.28;;;;;;;;;;5028917;28;20057;-54
2022/05/21 03:31:49;;;;;;;7.90;7.20;;;;;;;;;;5034935;28;20035;-55
2022/05/21 03:34:15;;;;;;;7.35;6.65;;;;;;;;;;5029940;28;20045;-55
2022/05/21 03:36:41;;;;;;;7.57;6.97;;;;;;;;;;5029228;28;20029;-56
2022/05/21 03:39:06;;;;;;;7.95;7.13;;;;;;;;;;5038445;28;20393;-56
2022/05/21 03:41:32;;;;;;;7.72;7.00;;;;;;;;;;5036884;28;20108;-55
2022/05/21 03:44:00;;;;;;;8.10;7.25;;;;;;;;;;5033007;28;20040;-55
2022/05/21 03:46:27;;;;;;;7.10;6.50;;;;;;;;;;5035416;28;20054;-52
2022/05/21 03:48:52;;;;;;;9.35;7.43;;;;;;;;;;5035989;28;20032;-55
2022/05/21 03:51:18;;;;;;;9.75;7.57;;;;;;;;;;5031441;28;20040;-55
2022/05/21 03:53:44;;;;;;;8.32;7.57;;;;;;;;;;5035405;28;20488;-57
2022/05/21 03:56:10;;;;;;;9.82;7.47;;;;;;;;;;5035513;28;20479;-53
2022/05/21 03:58:36;;;;;;;8.57;7.70;;;;;;;;;;5036342;28;20029;-55
2022/05/21 04:01:01;;;;;;;7.65;6.95;;;;;;;;;;5030841;28;20037;-53
2022/05/21 04:03:27;;;;;;;8.23;6.63;;;;;;;;;;5034218;28;20041;-56
2022/05/21 04:05:54;;;;;;;7.30;6.70;;;;;;;;;;5036205;28;20420;-53
2022/05/21 04:08:20;;;;;;;7.25;6.55;;;;;;;;;;5036476;28;20033;-55
2022/05/21 04:10:46;;;;;;;7.60;6.90;;;;;;;;;;5039867;28;20389;-56
2022/05/21 04:13:12;;;;;;;7.47;6.75;;;;;;;;;;5031645;28;20033;-53
2022/05/21 04:15:37;;;;;;;8.40;7.38;;;;;;;;;;5034204;28;20090;-55
2022/05/21 04:18:03;;;;;;;8.10;7.32;;;;;;;;;;5039353;28;20033;-51
2022/05/21 04:20:29;;;;;;;7.70;7.00;;;;;;;;;;5035984;28;20711;-53
2022/05/21 04:22:54;;;;;;;7.70;7.10;;;;;;;;;;5033635;28;20025;-53
2022/05/21 04:25:20;;;;;;;8.00;7.40;;;;;;;;;;5028982;28;20068;-55
2022/05/21 04:27:46;;;;;;;7.75;7.05;;;;;;;;;;5030474;28;20033;-56
2022/05/21 04:30:21;;;;;;;6.82;6.32;;;;;;;;;;5026800;28;20033;-57
2022/05/21 04:32:48;;;;;;;6.60;6.10;;;;;;;;;;5031748;28;20397;-53
2022/05/21 04:35:15;;;;;;;7.15;6.13;;;;;;;;;;5046052;28;20127;-55
2022/05/21 04:37:41;;;;;;;6.63;6.03;;;;;;;;;;5039635;28;20080;-52
2022/05/21 04:40:11;;;;;;;9.07;6.30;;;;;;;;;;5032878;28;20114;-51
2022/05/21 04:42:37;;;;;;;6.88;6.28;;;;;;;;;;5037839;28;20033;-56
2022/05/21 04:45:05;;;;;;;7.90;6.82;;;;;;;;;;5043396;28;20049;-56
2022/05/21 04:47:31;;;;;;;6.70;6.20;;;;;;;;;;5034586;28;20069;-56
2022/05/21 04:49:56;;;;;;;7.40;6.07;;;;;;;;;;5035895;28;20130;-52
2022/05/21 04:52:22;;;;;;;6.57;6.07;;;;;;;;;;5043253;28;20052;-52
2022/05/21 04:54:47;;;;;;;7.05;6.55;;;;;;;;;;5032404;28;20490;-54
2022/05/21 04:57:13;;;;;;;6.80;6.20;;;;;;;;;;5033409;28;20041;-57
2022/05/21 04:59:39;;;;;;;7.03;6.40;;;;;;;;;;5040910;28;20043;-53
2022/05/21 05:02:05;;;;;;;8.43;6.25;;;;;;;;;;5033077;28;20033;-57
2022/05/21 05:04:32;;;;;;;7.28;5.85;;;;;;;;;;5033086;28;20638;-52
2022/05/21 05:06:58;;;;;;;6.20;5.80;;;;;;;;;;5035067;28;20065;-56
2022/05/21 05:09:23;;;;;;;6.72;6.13;;;;;;;;;;5032718;28;20590;-56
2022/05/21 05:11:51;;;;;;;6.03;5.63;;;;;;;;;;5038866;28;20484;-54
2022/05/21 05:14:18;;;;;;;6.60;6.10;;;;;;;;;;5034172;28;20057;-55
2022/05/21 05:16:44;;;;;;;6.18;5.68;;;;;;;;;;5031736;28;20041;-55
2022/05/21 05:19:10;;;;;;;6.30;5.70;;;;;;;;;;5038205;28;20064;-58
2022/05/21 05:21:36;;;;;;;6.63;5.95;;;;;;;;;;5045308;28;20813;-56
2022/05/21 05:24:02;;;;;;;6.63;6.03;;;;;;;;;;5030910;28;20065;-56
2022/05/21 05:26:28;;;;;;;7.05;6.00;;;;;;;;;;5031797;28;20052;-57
2022/05/21 05:28:54;;;;;;;6.07;5.63;;;;;;;;;;5031585;28;20025;-55
2022/05/21 05:31:19;;;;;;;5.90;5.50;;;;;;;;;;5032689;28;20109;-54
2022/05/21 05:33:45;;;;;;;6.10;5.70;;;;;;;;;;5031006;28;20699;-63
2022/05/21 05:36:11;;;;;;;6.20;5.80;;;;;;;;;;5031605;28;20044;-64
2022/05/21 05:38:37;;;;;;;6.43;5.93;;;;;;;;;;5035986;28;20060;-64
2022/05/21 05:41:06;;;;;;;6.15;5.75;;;;;;;;;;5039601;28;20045;-64
2022/05/21 05:43:32;;;;;;;5.90;5.50;;;;;;;;;;5038463;28;20041;-64
2022/05/21 05:45:58;;;;;;;6.47;5.97;;;;;;;;;;5041506;28;20040;-63
2022/05/21 05:48:28;;;;;;;6.38;5.97;;;;;;;;;;5037202;28;20024;-64
2022/05/21 05:50:59;;;;;;;6.03;5.63;;;;;;;;;;5037603;28;20048;-64
2022/05/21 05:53:25;;;;;;;6.07;5.57;;;;;;;;;;5039218;28;20033;-64
2022/05/21 05:55:51;;;;;;;6.15;5.65;;;;;;;;;;5034575;28;20080;-64
2022/05/21 06:01:01;;;;;;;5.40;5.00;;;;;;;;;;5037828;28;20034;-64
2022/05/21 06:03:27;;;;;;;5.63;5.22;;;;;;;;;;5040499;28;20875;-64
2022/05/21 06:05:53;;;;;;;5.63;5.22;;;;;;;;;;5040665;28;20047;-64
2022/05/21 06:08:19;;;;;;;5.60;5.20;;;;;;;;;;5037234;28;20037;-64
2022/05/21 06:10:45;;;;;;;5.65;5.20;;;;;;;;;;5038163;28;20041;-64
2022/05/21 06:13:13;;;;;;;5.40;5.10;;;;;;;;;;5039477;28;20029;-64
2022/05/21 06:15:39;;;;;;;5.30;5.00;;;;;;;;;;5042658;28;20464;-63
2022/05/21 06:18:14;;;;;;;7.13;5.07;;;;;;;;;;5036186;28;20026;-64
2022/05/21 06:20:41;;;;;;;4.82;4.50;;;;;;;;;;5037017;28;20029;-64
2022/05/21 06:23:08;;;;;;;4.88;4.35;;;;;;;;;;5040440;28;20037;-64
2022/05/21 06:25:33;;;;;;;9.07;4.68;;;;;;;;;;5035943;28;20510;-64
2022/05/21 06:28:00;;;;;;;5.32;4.93;;;;;;;;;;5034761;28;20033;-64
2022/05/21 06:30:28;;;;;;;5.05;4.57;;;;;;;;;;5040282;28;20028;-63
2022/05/21 06:32:55;;;;;;;4.80;4.50;;;;;;;;;;5038304;28;20078;-64
2022/05/21 06:35:20;;;;;;;5.20;4.70;;;;;;;;;;5036532;28;20025;-64
2022/05/21 06:37:47;;;;;;;5.00;4.60;;;;;;;;;;5041145;28;20439;-64
2022/05/21 06:40:14;;;;;;;4.78;4.30;;;;;;;;;;5038731;28;20111;-64
2022/05/21 06:42:40;;;;;;;4.43;4.20;;;;;;;;;;5037248;28;20084;-64
2022/05/21 06:45:07;;;;;;;5.05;4.60;;;;;;;;;;5024186;28;20046;-64
2022/05/21 06:47:33;;;;;;;4.65;4.45;;;;;;;;;;5035337;28;20041;-63
2022/05/21 06:49:59;;;;;;;7.78;4.80;;;;;;;;;;5034990;28;20048;-64
2022/05/21 06:52:27;;;;;;;4.70;4.40;;;;;;;;;;5041311;28;20033;-64
2022/05/21 06:54:53;;;;;;;4.93;4.63;;;;;;;;;;5032472;28;20037;-64
2022/05/21 06:57:21;;;;;;;4.85;4.50;;;;;;;;;;5037740;28;20045;-64
2022/05/21 06:59:47;;;;;;;5.30;4.80;;;;;;;;;;5041137;28;20440;-64
2022/05/21 07:02:13;;;;;;;4.70;4.45;;;;;;;;;;5039603;28;20048;-63
2022/05/21 07:07:32;;;;;;;4.90;4.50;;;;;;;;;;5044263;28;20036;-63
2022/05/21 07:10:00;;;;;;;4.38;4.18;;;;;;;;;;5039885;28;20029;-63
2022/05/21 07:12:27;;;;;;;4.70;4.40;;;;;;;;;;5036709;28;20057;-64
2022/05/21 07:14:52;;;;;;;5.05;4.63;;;;;;;;;;5036991;28;20124;-64
2022/05/21 07:17:18;;;;;;;6.70;5.45;;;;;;;;;;5038275;28;20120;-64
2022/05/21 07:19:44;;;;;;;5.18;4.78;;;;;;;;;;5036107;28;20077;-64
2022/05/21 07:22:10;;;;;;;5.18;4.80;;;;;;;;;;5035109;28;20029;-64
2022/05/21 07:24:42;;;;;;;4.97;4.57;;;;;;;;;;5032581;28;20123;-64
2022/05/21 07:27:09;;;;;;;4.65;4.22;;;;;;;;;;5038107;28;20032;-64
2022/05/21 07:29:39;;;;;;;4.40;4.20;;;;;;;;;;5036465;28;20432;-64
2022/05/21 07:32:06;;;;;;;4.80;4.40;;;;;;;;;;5036962;28;20034;-64
2022/05/21 07:34:32;;;;;;;7.15;4.30;;;;;;;;;;5042661;28;20037;-64
2022/05/21 07:36:57;;;;;;;4.80;4.50;;;;;;;;;;5037978;28;20036;-64
2022/05/21 07:39:23;;;;;;;4.53;4.20;;;;;;;;;;5033570;28;20041;-64
2022/05/21 07:41:50;;;;;;;5.00;4.60;;;;;;;;;;5033743;28;20115;-64
2022/05/21 07:44:15;;;;;;;4.78;4.43;;;;;;;;;;5037934;28;20120;-64
2022/05/21 07:46:41;;;;;;;4.70;4.30;;;;;;;;;;5031147;28;20043;-64
2022/05/21 07:49:07;;;;;;;4.63;4.30;;;;;;;;;;5034645;28;20041;-64
2022/05/21 07:51:32;;;;;;;4.43;4.22;;;;;;;;;;5028954;28;20586;-64
2022/05/21 07:53:58;;;;;;;4.57;4.28;;;;;;;;;;5035120;28;20071;-64
2022/05/21 07:56:24;;;;;;;4.70;4.28;;;;;;;;;;5024989;28;20040;-64
2022/05/21 07:58:50;;;;;;;4.50;4.20;;;;;;;;;;5036464;28;20072;-64
2022/05/21 08:01:16;;;;;;;4.57;4.28;;;;;;;;;;5029296;28;20124;-64
2022/05/21 08:03:42;;;;;;;4.65;4.30;;;;;;;;;;5029285;28;20147;-64
2022/05/21 08:06:08;;;;;;;4.68;4.30;;;;;;;;;;5026967;28;20385;-64
2022/05/21 08:08:34;;;;;;;4.68;4.32;;;;;;;;;;5028511;28;20029;-65
2022/05/21 08:11:00;;;;;;;4.68;4.38;;;;;;;;;;5038181;28;20074;-64
2022/05/21 08:13:26;;;;;;;4.63;4.22;;;;;;;;;;5026046;28;20061;-64
2022/05/21 08:15:51;;;;;;;4.22;3.95;;;;;;;;;;5028096;28;20029;-64
2022/05/21 08:18:17;;;;;;;4.47;4.25;;;;;;;;;;5030622;28;20044;-64
2022/05/21 08:20:42;;;;;;;4.57;4.28;;;;;;;;;;5029761;28;20083;-64
2022/05/21 08:28:46;;;;;;;5.05;4.60;;;;;;;;;;5029166;28;20140;-60
2022/05/21 08:31:12;;;;;;;5.20;4.80;;;;;;;;;;5028712;28;20029;-61
2022/05/21 08:33:37;;;;;;;5.78;5.10;;;;;;;;;;5028945;28;20103;-62
2022/05/21 08:36:03;;;;;;;5.65;4.82;;;;;;;;;;5039630;28;20041;-61
2022/05/21 08:38:29;;;;;;;5.15;4.82;;;;;;;;;;5039849;28;20060;-62
2022/05/21 08:41:03;;;;;;;5.65;5.00;;;;;;;;;;5032251;28;20045;-62
2022/05/21 08:44:02;;;;;;;5.22;4.78;;;;;;;;;;5025307;28;20504;-60
2022/05/21 08:46:52;;;;;;;5.40;4.90;;;;;;;;;;5023347;28;20521;-62
2022/05/21 08:49:50;;;;;;;5.47;4.97;;;;;;;;;;5032764;28;20032;-62
2022/05/21 08:52:22;;;;;;;7.97;5.20;;;;;;;;;;5026689;28;20396;-61
2022/05/21 08:54:50;;;;;;;5.55;5.13;;;;;;;;;;5032411;28;20051;-62
2022/05/21 08:57:38;;;;;;;5.00;4.60;;;;;;;;;;5032730;28;20389;-64
2022/05/21 09:00:09;;;;;;;4.97;4.68;;;;;;;;;;5026271;28;20040;-62
2022/05/21 09:02:36;;;;;;;5.20;4.72;;;;;;;;;;5030680;28;20527;-61
2022/05/21 09:05:06;;;;;;;5.13;4.72;;;;;;;;;;5030888;28;20630;-62
2022/05/21 09:08:02;;;;;;;4.95;4.65;;;;;;;;;;5028803;28;20032;-62
2022/05/21 09:10:41;;;;;;;4.80;4.40;;;;;;;;;;5031377;28;20044;-61
2022/05/21 09:13:21;;;;;;;4.80;4.30;;;;;;;;;;5032104;28;20112;-62
2022/05/21 09:18:33;;;;;;;5.30;4.90;;;;;;;;;;5041005;28;20128;-61
2022/05/21 09:21:22;;;;;;;4.65;4.30;;;;;;;;;;5030072;28;20037;-61
2022/05/21 09:23:59;;;;;;;4.57;4.38;;;;;;;;;;5036035;28;20104;-62
2022/05/21 09:26:45;;;;;;;4.63;4.43;;;;;;;;;;5031926;28;20396;-62
2022/05/21 09:29:26;;;;;;;4.53;4.32;;;;;;;;;;5032716;28;20025;-62
2022/05/21 09:31:54;;;;;;;4.53;4.22;;;;;;;;;;5030774;28;20396;-61
2022/05/21 09:34:22;;;;;;;4.60;4.30;;;;;;;;;;5037367;28;20037;-62
2022/05/21 09:36:48;;;;;;;4.20;4.00;;;;;;;;;;5029287;28;20041;-62
2022/05/21 09:39:32;;;;;;;4.15;3.95;;;;;;;;;;5040590;28;20665;-62
2022/05/21 09:45:21;;;;;;;5.07;4.53;;;;;;;;;;5044232;28;20369;-61
2022/05/21 09:45:22;;;;;;;4.80;4.40;;;;;;;;;;5031254;28;20029;-61
2022/05/21 09:48:08;;;;;;;4.50;4.20;;;;;;;;;;5031580;28;20037;-61
2022/05/21 09:50:54;;;;;;;4.75;4.35;;;;;;;;;;5024136;28;20053;-61
2022/05/21 09:53:33;;;;;;;4.85;4.40;;;;;;;;;;5041363;28;20024;-60
2022/05/21 09:56:03;;;;;;;6.10;4.30;;;;;;;;;;5035492;28;20584;-61
2022/05/21 09:58:33;;;;;;;4.82;4.35;;;;;;;;;;5032870;28;20029;-60
2022/05/21 10:00:59;;;;;;;4.82;4.30;;;;;;;;;;5030413;28;20061;-60
2022/05/21 10:03:39;;;;;;;4.40;4.20;;;;;;;;;;5036558;28;20067;-60
2022/05/21 10:06:17;;;;;;;4.32;4.13;;;;;;;;;;5024659;28;20029;-61
2022/05/21 10:11:34;;;;;;;4.25;4.05;;;;;;;;;;5036642;28;20091;-61
2022/05/21 10:14:04;;;;;;;4.10;3.90;;;;;;;;;;5039595;28;20041;-61
2022/05/21 10:16:48;;;;;;;4.38;3.97;;;;;;;;;;5029571;28;20119;-62
2022/05/21 10:19:51;;;;;;;4.70;4.10;;;;;;;;;;5027953;28;20045;-61
2022/05/21 10:22:51;;;;;;;4.57;4.18;;;;;;;;;;5031098;28;20091;-61
2022/05/21 10:25:23;;;;;;;4.65;4.22;;;;;;;;;;5031547;28;20050;-61
2022/05/21 10:28:10;;;;;;;4.43;4.10;;;;;;;;;;5029943;28;20450;-61
2022/05/21 10:31:02;;;;;;;4.07;3.88;;;;;;;;;;5031327;28;20037;-60
2022/05/21 10:33:51;;;;;;;4.63;4.32;;;;;;;;;;5025044;28;20041;-61
2022/05/21 10:36:25;;;;;;;;;;;;;;;;;;5034088;28;20036;-65
2022/05/21 10:39:09;;;;;;;4.43;4.05;;;;;;;;;;5038089;28;20418;-62
2022/05/21 10:42:02;;;;;;;4.90;4.05;;;;;;;;;;5031269;28;20121;-61
2022/05/21 10:44:42;;;;;;;4.40;4.00;;;;;;;;;;5032717;28;20079;-62
2022/05/21 10:47:31;;;;;;;4.60;4.20;;;;;;;;;;5031489;28;20070;-62
2022/05/21 10:50:10;;;;;;;4.82;4.30;;;;;;;;;;5027250;28;20636;-61
2022/05/21 10:53:10;;;;;;;4.45;4.22;;;;;;;;;;5033519;28;20099;-61
2022/05/21 10:55:57;;;;;;;4.70;4.40;;;;;;;;;;5029961;28;20064;-61
2022/05/21 10:58:53;;;;;;;4.85;4.43;;;;;;;;;;5037477;28;20116;-62
2022/05/21 11:01:33;;;;;;;4.85;4.45;;;;;;;;;;5033277;28;20090;-62
2022/05/21 11:04:18;;;;;;;7.47;4.28;;;;;;;;;;5037286;28;20064;-62
2022/05/21 11:06:44;;;;;;;4.55;4.25;;;;;;;;;;5030434;28;20049;-62
2022/05/21 11:09:14;;;;;;;4.68;4.38;;;;;;;;;;5028702;28;20107;-62
2022/05/21 11:12:05;;;;;;;13.60;4.68;;;;;;;;;;5034350;28;20056;-62
2022/05/21 11:15:01;;;;;;;4.97;4.63;;;;;;;;;;5033200;28;20083;-62
2022/05/21 11:17:54;;;;;;;4.90;4.50;;;;;;;;;;5027346;28;20041;-62
2022/05/21 11:20:29;;;;;;;4.90;4.10;;;;;;;;;;5026922;28;20030;-62
2022/05/21 11:23:07;;;;;;;8.65;4.43;;;;;;;;;;5040725;28;20070;-61
2022/05/21 11:25:50;;;;;;;4.85;4.45;;;;;;;;;;5030711;28;20044;-61
2022/05/21 11:28:37;;;;;;;4.97;4.68;;;;;;;;;;5031911;28;20388;-61
2022/05/21 11:31:13;;;;;;;5.20;4.70;;;;;;;;;;5035459;28;20068;-62
2022/05/21 11:39:21;;;;;;;5.00;4.55;;;;;;;;;;5026339;28;20173;-62
2022/05/21 11:41:53;;;;;;;4.72;4.28;;;;;;;;;;5031786;28;20519;-62
2022/05/21 11:47:07;;;;;;;4.47;4.15;;;;;;;;;;5033712;28;20636;-62
2022/05/21 11:49:40;;;;;;;4.93;4.63;;;;;;;;;;5032308;28;20044;-62
2022/05/21 11:52:27;;;;;;;5.57;4.60;;;;;;;;;;5031675;28;20086;-62
2022/05/21 11:54:53;;;;;;;5.63;5.07;;;;;;;;;;5028635;28;20101;-61
2022/05/21 11:57:37;;;;;;;34.33;5.53;;;;;;;;;;5034109;28;20125;-61
2022/05/21 12:00:26;;;;;;;5.20;4.70;;;;;;;;;;5027663;28;20513;-62
2022/05/21 12:02:53;;;;;;;;;;;;;;;;;;5026740;28;20059;-62
2022/05/21 12:05:34;;;;;;;4.40;4.10;;;;;;;;;;5040702;28;20007;-62
2022/05/21 12:08:34;;;;;;;6.82;4.18;;;;;;;;;;5027885;28;20484;-62
2022/05/21 12:11:08;;;;;;;4.40;4.10;;;;;;;;;;5029734;28;20040;-63
2022/05/21 12:13:34;;;;;;;5.65;4.20;;;;;;;;;;5030032;28;20120;-63
2022/05/21 12:16:01;;;;;;;3.90;3.70;;;;;;;;;;5029457;28;20128;-60
2022/05/21 12:18:55;;;;;;;4.30;4.00;;;;;;;;;;5031812;28;20440;-60
2022/05/21 12:21:30;;;;;;;4.20;3.90;;;;;;;;;;5037513;28;20056;-61
2022/05/21 12:23:58;;;;;;;5.05;3.85;;;;;;;;;;5032845;28;20033;-61
2022/05/21 12:26:25;;;;;;;4.53;3.80;;;;;;;;;;5029014;28;20033;-61
2022/05/21 12:28:56;;;;;;;4.30;4.10;;;;;;;;;;5032961;28;20041;-61
2022/05/21 12:31:28;;;;;;;4.50;4.10;;;;;;;;;;5029424;28;20464;-60
2022/05/21 12:34:15;;;;;;;4.88;4.20;;;;;;;;;;5033583;28;20037;-60
2022/05/21 12:36:46;;;;;;;4.32;3.95;;;;;;;;;;5029813;28;20026;-61
2022/05/21 12:39:17;;;;;;;4.68;4.18;;;;;;;;;;5034048;28;20075;-61
2022/05/21 12:41:46;;;;;;;4.68;4.30;;;;;;;;;;5021475;28;20040;-61
2022/05/21 12:44:45;;;;;;;6.88;4.25;;;;;;;;;;5028159;28;20038;-60
2022/05/21 12:47:13;;;;;;;12.25;4.60;;;;;;;;;;5028760;28;20037;-63
2022/05/21 12:49:48;;;;;;;4.30;4.00;;;;;;;;;;5038235;28;20038;-63
2022/05/21 12:52:49;;;;;;;4.63;4.10;;;;;;;;;;5030858;28;20032;-61
2022/05/21 12:55:26;;;;;;;5.00;4.50;;;;;;;;;;5027681;28;20061;-63
2022/05/21 12:58:10;;;;;;;5.65;4.38;;;;;;;;;;5033357;28;20029;-60
2022/05/21 13:00:37;;;;;;;4.47;4.07;;;;;;;;;;5026917;28;20042;-60
2022/05/21 13:03:09;;;;;;;4.20;3.90;;;;;;;;;;5032192;28;20080;-59
2022/05/21 13:05:39;;;;;;;4.93;4.13;;;;;;;;;;5032550;28;20404;-60
2022/05/21 13:08:06;;;;;;;5.30;4.28;;;;;;;;;;5030979;28;20745;-61
2022/05/21 13:10:39;;;;;;;5.53;4.90;;;;;;;;;;5032970;28;20030;-62
2022/05/21 13:13:08;;;;;;;5.70;4.32;;;;;;;;;;5043925;28;20052;-63
2022/05/21 13:15:46;;;;;;;6.25;4.20;;;;;;;;;;5033682;28;20056;-62
2022/05/21 13:18:38;;;;;;;6.47;4.38;;;;;;;;;;5030984;28;20489;-62
2022/05/21 13:21:12;;;;;;;4.40;4.00;;;;;;;;;;5034932;28;20125;-63
2022/05/21 13:24:01;;;;;;;7.40;4.03;;;;;;;;;;5033486;28;20436;-62
2022/05/21 13:26:34;;;;;;;;;;;;;;;;;;5032517;28;20038;-63
2022/05/21 13:29:19;;;;;;;4.30;3.90;;;;;;;;;;5031417;28;20372;-62
2022/05/21 13:31:50;;;;;;;4.38;3.97;;;;;;;;;;5038692;28;20037;-63
2022/05/21 13:34:19;;;;;;;4.38;4.00;;;;;;;;;;5032163;28;20122;-61
2022/05/21 13:36:48;;;;;;;;;;;;;;;;;;5031045;28;20535;-62
2022/05/21 13:39:21;;;;;;;4.55;4.15;;;;;;;;;;5034457;28;19970;-61
2022/05/21 13:41:46;;;;;;;4.75;4.25;;;;;;;;;;5046441;28;20148;-66
2022/05/21 13:44:15;;;;;;;4.60;4.20;;;;;;;;;;5044415;28;20480;-62
2022/05/21 13:46:41;;;;;;;;;;;;;;;;;;5029800;28;20428;-64
2022/05/21 13:49:32;;;;;;;4.68;4.25;;;;;;;;;;5031682;28;19913;-63
2022/05/21 13:51:58;;;;;;;4.63;4.28;;;;;;;;;;5044776;28;20033;-63
2022/05/21 13:54:28;;;;;;;4.65;4.30;;;;;;;;;;5031105;28;20063;-62
2022/05/21 13:57:06;;;;;;;4.97;4.30;;;;;;;;;;5031091;28;20040;-62
2022/05/21 13:59:32;;;;;;;5.05;4.55;;;;;;;;;;5044336;28;20037;-63
2022/05/21 14:02:19;;;;;;;4.95;4.50;;;;;;;;;;5040041;28;20045;-61
2022/05/21 14:04:44;;;;;;;4.60;4.20;;;;;;;;;;5027058;28;20148;-63
2022/05/21 14:07:33;;;;;;;5.40;4.90;;;;;;;;;;5040732;28;20509;-63
2022/05/21 14:10:09;;;;;;;5.10;4.68;;;;;;;;;;5045579;28;20033;-62
2022/05/21 14:12:52;;;;;;;5.82;4.47;;;;;;;;;;5036217;28;20033;-62
2022/05/21 14:15:35;;;;;;;4.68;4.30;;;;;;;;;;5041381;28;20067;-62
2022/05/21 14:18:04;;;;;;;4.38;4.07;;;;;;;;;;5036800;28;20037;-62
2022/05/21 14:20:35;;;;;;;4.45;4.10;;;;;;;;;;5028712;28;20048;-61
2022/05/21 14:23:30;;;;;;;4.70;4.30;;;;;;;;;;5031052;28;20033;-62
2022/05/21 14:26:32;;;;;;;4.32;3.92;;;;;;;;;;5022791;28;20107;-62
2022/05/21 14:28:59;;;;;;;4.22;3.92;;;;;;;;;;5035791;28;20123;-62
2022/05/21 14:31:33;;;;;;;5.10;4.60;;;;;;;;;;5033810;28;20045;-62
2022/05/21 14:34:03;;;;;;;5.80;4.10;;;;;;;;;;5030599;28;20037;-62
2022/05/21 14:36:41;;;;;;;4.60;4.05;;;;;;;;;;5032614;28;20032;-62
2022/05/21 14:39:08;;;;;;;4.40;4.10;;;;;;;;;;5033741;28;20029;-62
2022/05/21 14:41:37;;;;;;;5.75;4.70;;;;;;;;;;5042219;28;20028;-62
2022/05/21 14:44:12;;;;;;;5.22;4.80;;;;;;;;;;5038622;28;20039;-62
2022/05/21 14:49:21;;;;;;;6.53;4.50;;;;;;;;;;5030698;28;20063;-60
2022/05/21 14:54:37;;;;;;;;;;;;;;;;;;5031724;28;20030;-61
2022/05/21 14:57:03;;;;;;;4.65;4.30;;;;;;;;;;5033889;28;20041;-60
2022/05/21 14:59:29;;;;;;;4.20;3.90;;;;;;;;;;5041381;28;20122;-60
2022/05/21 15:01:55;;;;;;;4.65;4.25;;;;;;;;;;5032720;28;20041;-61
2022/05/21 15:04:21;;;;;;;5.97;4.50;;;;;;;;;;5039475;28;20563;-59
2022/05/21 15:06:47;;;;;;;4.40;4.10;;;;;;;;;;5034084;28;20030;-62
2022/05/21 15:09:14;;;;;;;4.53;4.13;;;;;;;;;;5030832;28;20088;-59
2022/05/21 15:11:40;;;;;;;5.00;4.40;;;;;;;;;;5033023;28;20033;-61
2022/05/21 15:14:06;;;;;;;4.53;4.13;;;;;;;;;;5031435;28;20124;-62
2022/05/21 15:16:32;;;;;;;4.80;4.40;;;;;;;;;;5030468;28;20125;-61
2022/05/21 15:18:59;;;;;;;4.95;4.40;;;;;;;;;;5037142;28;20092;-61
2022/05/21 15:21:29;;;;;;;4.65;4.35;;;;;;;;;;5035113;28;20447;-61
2022/05/21 15:23:56;;;;;;;5.20;4.50;;;;;;;;;;5035281;28;20038;-62
2022/05/21 15:26:23;;;;;;;4.95;4.55;;;;;;;;;;5027541;28;20113;-61
2022/05/21 15:28:50;;;;;;;4.70;4.40;;;;;;;;;;5036021;28;20368;-62
2022/05/21 15:31:16;;;;;;;7.22;4.85;;;;;;;;;;5034395;28;20044;-61
2022/05/21 15:33:42;;;;;;;5.15;4.75;;;;;;;;;;5042544;28;20059;-62
2022/05/21 15:36:09;;;;;;;5.05;4.50;;;;;;;;;;5028286;28;20033;-61
2022/05/21 15:38:35;;;;;;;5.97;4.35;;;;;;;;;;5031311;28;20140;-60
2022/05/21 15:41:00;;;;;;;4.65;4.10;;;;;;;;;;5030151;28;20041;-62
2022/05/21 15:43:26;;;;;;;6.40;4.40;;;;;;;;;;5045219;28;20033;-62
2022/05/21 15:45:53;;;;;;;7.18;4.47;;;;;;;;;;5029017;28;20103;-62
2022/05/21 15:48:19;;;;;;;4.90;4.40;;;;;;;;;;5029815;28;20034;-62
2022/05/21 15:50:47;;;;;;;5.22;4.15;;;;;;;;;;5037822;28;20601;-62
2022/05/21 15:53:13;;;;;;;3.95;3.70;;;;;;;;;;5035937;28;20159;-63